Time;durP1;ratioP1;P1;durP2;ratioP2;P2;SDS_P1;SDS_P2;PMS_P1;PMS_P2;Temp;Humidity;BMP_temperature;BMP_pressure;BME280_temperature;BME280_humidity;BME280_pressure;Samples;Min_cycle;Max_cycle;Signal;HPM_P1;HPM_P2
2022/02/03 00:00:44;;;;;;;;;;;0.70;99.90;;;;;;4175176;28;19995;-49
2022/02/03 00:05:22;;;;;;;;;;;0.60;99.90;;;;;;4125709;28;19981;-48
2022/02/03 00:07:33;;;;;;;;;;;0.60;99.90;;;;;;4129644;28;20028;-49
2022/02/03 00:25:47;;;;;;;;;;;0.50;99.90;;;;;;4127882;28;20020;-47
2022/02/03 00:30:06;;;;;;;;;;;0.70;99.90;;;;;;4116840;28;19940;-49
2022/02/03 00:32:17;;;;;;;;;;;0.60;99.90;;;;;;4129273;28;19926;-50
2022/02/03 00:34:28;;;;;;;;;;;0.60;99.90;;;;;;4130002;28;19934;-49
2022/02/03 00:36:52;;;;;;;;;;;0.40;99.90;;;;;;4129377;28;20504;-48
2022/02/03 00:48:31;;;;;;;;;;;-0.10;99.90;;;;;;4179519;28;20404;-49
2022/02/03 00:50:39;;;;;;;;;;;-0.20;99.90;;;;;;4177041;28;19928;-49
2022/02/03 00:52:41;;;;;;;;;;;-0.20;99.90;;;;;;4177967;28;19948;-49
2022/02/03 00:54:43;;;;;;;;;;;-0.30;99.90;;;;;;4179639;28;20047;-49
2022/02/03 00:56:51;;;;;;;;;;;-0.30;99.90;;;;;;4170344;28;19925;-51
2022/02/03 00:59:02;;;;;;;;;;;-0.30;99.90;;;;;;4170184;28;20712;-48
2022/02/03 01:01:04;;;;;;;;;;;-0.40;99.90;;;;;;4179340;28;19964;-49
2022/02/03 01:03:08;;;;;;;;;;;-0.40;99.90;;;;;;4177321;28;20631;-50
2022/02/03 01:05:10;;;;;;;;;;;-0.50;99.90;;;;;;4177235;28;20367;-47
2022/02/03 01:07:15;;;;;;;;;;;-0.50;99.90;;;;;;4176522;28;19929;-49
2022/02/03 01:09:22;;;;;;;;;;;-0.40;99.90;;;;;;4178631;28;19955;-49
2022/02/03 01:11:31;;;;;;;;;;;-0.40;99.90;;;;;;4176406;28;19964;-46
2022/02/03 01:13:41;;;;;;;;;;;-0.40;99.90;;;;;;4176228;28;19932;-50
2022/02/03 01:15:58;;;;;;;;;;;-0.50;99.90;;;;;;4178751;28;19959;-47
2022/02/03 01:34:33;;;;;;;;;;;-0.30;99.90;;;;;;4176921;28;19929;-48
2022/02/03 01:43:46;;;;;;;;;;;-0.60;99.90;;;;;;4178386;28;19976;-50
2022/02/03 01:45:52;;;;;;;;;;;-0.60;99.90;;;;;;4177129;28;19929;-48
2022/02/03 01:48:19;;;;;;;;;;;-0.60;99.90;;;;;;4175747;28;19925;-49
2022/02/03 01:52:29;;;;;;;;;;;-0.30;99.90;;;;;;4177015;28;19968;-50
2022/02/03 01:54:31;;;;;;;;;;;-0.30;99.90;;;;;;4167932;28;19999;-49
2022/02/03 01:56:33;;;;;;;;;;;-0.30;99.90;;;;;;4178708;28;20402;-48
2022/02/03 01:58:39;;;;;;;;;;;-0.20;99.90;;;;;;4176001;28;20023;-49
2022/02/03 02:00:44;;;;;;;;;;;-0.30;99.90;;;;;;4160260;28;19925;-47
2022/02/03 02:02:49;;;;;;;;;;;-0.40;99.90;;;;;;4168361;28;19954;-50
2022/02/03 02:05:00;;;;;;;;;;;-0.30;99.90;;;;;;4176713;28;20396;-49
2022/02/03 02:07:04;;;;;;;;;;;-0.20;99.90;;;;;;4174441;28;19982;-49
2022/02/03 02:09:18;;;;;;;;;;;-0.30;99.90;;;;;;4178908;28;19964;-49
2022/02/03 02:11:56;;;;;;;;;;;-0.30;99.90;;;;;;4176489;28;19986;-50
2022/02/03 02:14:27;;;;;;;;;;;-0.30;99.90;;;;;;4174615;28;19968;-50
2022/02/03 02:19:26;;;;;;;;;;;-0.10;99.90;;;;;;4175166;28;20020;-50
2022/02/03 02:44:23;;;;;;;;;;;-0.90;99.90;;;;;;4176056;28;20301;-49
2022/02/03 02:46:35;;;;;;;;;;;-0.90;99.90;;;;;;4176590;28;19975;-46
2022/02/03 02:48:39;;;;;;;;;;;-1.00;99.90;;;;;;4176515;28;19966;-46
2022/02/03 02:50:57;;;;;;;;;;;-1.10;99.90;;;;;;4176664;28;20560;-47
2022/02/03 02:53:24;;;;;;;;;;;-1.20;99.90;;;;;;4165564;28;19935;-46
2022/02/03 03:02:41;;;;;;;;;;;-1.20;99.90;;;;;;4176597;28;19968;-50
2022/02/03 03:36:58;;;;;;;;;;;-1.10;99.90;;;;;;4175167;28;20023;-50
2022/02/03 03:39:03;;;;;;;;;;;-1.10;99.90;;;;;;4177217;28;20399;-49
2022/02/03 03:41:05;;;;;;;;;;;-1.00;99.90;;;;;;4174176;28;19928;-50
2022/02/03 03:43:08;;;;;;;;;;;-1.00;99.90;;;;;;4175199;28;19936;-47
2022/02/03 03:45:11;;;;;;;;;;;-1.00;99.90;;;;;;4177116;28;20300;-48
2022/02/03 03:47:20;;;;;;;;;;;-1.00;99.90;;;;;;4167703;28;20020;-48
2022/02/03 03:49:53;;;;;;;;;;;-1.20;99.90;;;;;;4167528;28;20007;-49
2022/02/03 03:52:02;;;;;;;;;;;-1.30;99.90;;;;;;4175392;28;20024;-49
2022/02/03 03:54:08;;;;;;;;;;;-1.40;99.90;;;;;;4176755;28;20345;-50
2022/02/03 03:56:20;;;;;;;;;;;-1.30;99.90;;;;;;4174960;28;20023;-49
2022/02/03 04:32:46;;;;;;;;;;;-1.60;99.90;;;;;;4165001;28;20304;-47
2022/02/03 04:39:47;;;;;;;;;;;-1.80;99.90;;;;;;4175502;28;20376;-46
2022/02/03 05:02:19;;;;;;;;;;;-2.10;99.90;;;;;;4175936;28;19929;-50
2022/02/03 05:04:36;;;;;;;;;;;-2.20;99.90;;;;;;4176118;28;19990;-48
2022/02/03 05:11:26;;;;;;;;;;;-1.80;99.90;;;;;;4176579;28;19935;-48
2022/02/03 05:26:09;;;;;;;;;;;-1.80;99.90;;;;;;4177407;28;20006;-50
2022/02/03 05:47:59;;;;;;;;;;;-2.00;99.90;;;;;;4176843;28;20385;-49
2022/02/03 06:01:45;;;;;;;;;;;-2.60;99.90;;;;;;4178469;28;20300;-48
2022/02/03 06:06:12;;;;;;;;;;;-2.40;99.90;;;;;;4171192;28;20610;-50
2022/02/03 06:08:22;;;;;;;;;;;-2.40;99.90;;;;;;4172798;28;19936;-49
2022/02/03 06:12:56;;;;;;;;;;;-2.40;99.90;;;;;;4175462;28;20400;-49
2022/02/03 06:15:16;;;;;;;;;;;-2.30;99.90;;;;;;4176084;28;19971;-48
2022/02/03 06:21:52;;;;;;;;;;;-2.30;99.90;;;;;;4173871;28;19924;-52
2022/02/03 06:24:18;;;;;;;;;;;-2.10;99.90;;;;;;4175974;28;19960;-52
2022/02/03 06:28:47;;;;;;;;;;;-1.90;99.90;;;;;;4169276;28;20662;-51
2022/02/03 06:30:49;;;;;;;;;;;-1.50;99.90;;;;;;4173844;28;20411;-52
2022/02/03 06:32:51;;;;;;;;;;;-1.40;99.90;;;;;;4185803;28;19925;-51
2022/02/03 06:34:53;;;;;;;;;;;-1.30;99.90;;;;;;4176458;28;20024;-51
2022/02/03 06:36:55;;;;;;;;;;;-1.30;99.90;;;;;;4184169;28;19963;-51
2022/02/03 06:38:57;;;;;;;;;;;-1.70;99.90;;;;;;4182796;28;19971;-50
2022/02/03 06:40:59;;;;;;;;;;;-2.00;99.90;;;;;;4173473;28;19996;-50
2022/02/03 06:43:01;;;;;;;;;;;-2.20;99.90;;;;;;4175139;28;19928;-50
2022/02/03 06:45:58;;;;;;;;;;;-2.30;99.90;;;;;;4177165;28;19925;-52
2022/02/03 06:47:34;;;;;;;;;;;-2.40;99.90;;;;;;4156796;28;19929;-52
2022/02/03 06:51:49;;;;;;;;;;;-2.80;99.90;;;;;;4176354;28;19924;-52
2022/02/03 06:53:56;;;;;;;;;;;-2.90;99.90;;;;;;4165449;28;19925;-52
2022/02/03 06:56:10;;;;;;;;;;;-2.80;99.90;;;;;;4169205;28;19928;-51
2022/02/03 07:00:24;;;;;;;;;;;-2.70;99.90;;;;;;4177518;28;19929;-51
2022/02/03 07:02:30;;;;;;;;;;;-2.70;99.90;;;;;;4174565;28;20007;-50
2022/02/03 07:04:40;;;;;;;;;;;-2.70;99.90;;;;;;4174849;28;19975;-50
2022/02/03 07:06:42;;;;;;;;;;;-2.50;99.90;;;;;;4177457;28;19970;-49
2022/02/03 07:08:46;;;;;;;;;;;-2.20;99.90;;;;;;4173818;28;20002;-52
2022/02/03 07:10:49;;;;;;;;;;;-2.10;99.90;;;;;;4175731;28;20711;-49
2022/02/03 07:12:51;;;;;;;;;;;-2.10;99.90;;;;;;4174283;28;20012;-51
2022/02/03 07:14:54;;;;;;;;;;;-1.90;99.90;;;;;;4175357;28;20296;-51
2022/02/03 07:16:58;;;;;;;;;;;-1.90;99.90;;;;;;4174743;28;20027;-51
2022/02/03 07:19:00;;;;;;;;;;;-1.80;99.90;;;;;;4175732;28;19935;-52
2022/02/03 07:21:01;;;;;;;;;;;-1.70;99.90;;;;;;4170244;28;20023;-51
2022/02/03 07:23:06;;;;;;;;;;;-1.50;99.90;;;;;;4174579;28;20015;-52
2022/02/03 07:25:08;;;;;;;;;;;-1.30;99.90;;;;;;4177343;28;19982;-50
2022/02/03 07:27:10;;;;;;;;;;;-1.20;99.90;;;;;;4170210;28;19933;-52
2022/02/03 07:29:12;;;;;;;;;;;-1.20;99.90;;;;;;4172870;28;20368;-52
2022/02/03 07:31:14;;;;;;;;;;;-1.30;99.90;;;;;;4176600;28;19929;-51
2022/02/03 07:33:16;;;;;;;;;;;-1.40;99.90;;;;;;4172553;28;20031;-52
2022/02/03 07:35:18;;;;;;;;;;;-1.50;99.90;;;;;;4155275;28;19929;-52
2022/02/03 07:37:23;;;;;;;;;;;-1.70;99.90;;;;;;4168014;28;19933;-51
2022/02/03 07:39:25;;;;;;;;;;;-1.80;99.90;;;;;;4174022;28;19947;-51
2022/02/03 07:41:27;;;;;;;;;;;-1.80;99.90;;;;;;4173804;28;19924;-52
2022/02/03 07:43:29;;;;;;;;;;;-1.60;99.90;;;;;;4175107;28;20027;-52
2022/02/03 07:45:32;;;;;;;;;;;-1.50;99.90;;;;;;4172625;28;19929;-51
2022/02/03 07:47:34;;;;;;;;;;;-1.30;99.90;;;;;;4168709;28;20028;-51
2022/02/03 07:49:36;;;;;;;;;;;-0.90;99.90;;;;;;4176102;28;20003;-52
2022/02/03 07:51:37;;;;;;;;;;;-0.70;99.90;;;;;;4172473;28;20003;-50
2022/02/03 07:53:39;;;;;;;;;;;-0.40;99.90;;;;;;4165446;28;19979;-52
2022/02/03 07:55:42;;;;;;;;;;;-0.10;99.90;;;;;;4166643;28;20416;-51
2022/02/03 07:57:44;;;;;;;;;;;0.10;99.90;;;;;;4172166;28;20432;-50
2022/02/03 07:59:46;;;;;;;;;;;0.30;99.90;;;;;;4177148;28;19960;-51
2022/02/03 08:01:48;;;;;;;;;;;0.50;99.90;;;;;;4175504;28;20079;-52
2022/02/03 08:03:50;;;;;;;;;;;0.50;99.90;;;;;;4173929;28;20127;-51
2022/02/03 08:05:59;;;;;;;;;;;0.30;99.90;;;;;;4162616;28;20028;-50
2022/02/03 08:08:17;;;;;;;;;;;0.20;99.90;;;;;;4174957;28;19972;-51
2022/02/03 08:10:40;;;;;;;;;;;0.10;99.90;;;;;;4173730;28;20330;-51
2022/02/03 08:12:42;;;;;;;;;;;-0.30;99.90;;;;;;4174973;28;20392;-51
2022/02/03 08:14:48;;;;;;;;;;;-0.30;99.90;;;;;;4176872;28;19935;-52
2022/02/03 08:16:59;;;;;;;;;;;-0.30;99.90;;;;;;4174927;28;19929;-50
2022/02/03 08:19:17;;;;;;;;;;;-0.30;99.90;;;;;;4166901;28;19968;-52
2022/02/03 08:21:21;;;;;;;;;;;-0.20;99.90;;;;;;4160675;28;19932;-53
2022/02/03 08:23:42;;;;;;;;;;;-0.20;99.90;;;;;;4174768;28;19964;-50
2022/02/03 08:26:00;;;;;;;;;;;-0.20;99.90;;;;;;4173380;28;20341;-52
2022/02/03 08:32:43;;;;;;;;;;;-0.10;99.90;;;;;;4174482;28;20349;-50
2022/02/03 08:36:49;;;;;;;;;;;0.60;99.90;;;;;;4160822;28;19964;-52
2022/02/03 08:38:56;;;;;;;;;;;0.80;99.90;;;;;;4174142;28;19975;-50
2022/02/03 08:41:01;;;;;;;;;;;0.90;99.90;;;;;;4172998;28;20019;-51
2022/02/03 08:43:03;;;;;;;;;;;1.10;99.90;;;;;;4176814;28;19971;-50
2022/02/03 08:45:06;;;;;;;;;;;1.30;99.90;;;;;;4173550;28;19936;-51
2022/02/03 08:47:07;;;;;;;;;;;1.30;99.90;;;;;;4176295;28;19928;-50
2022/02/03 08:49:10;;;;;;;;;;;1.30;99.90;;;;;;4163577;28;19929;-53
2022/02/03 08:51:13;;;;;;;;;;;1.20;99.90;;;;;;4175510;28;20439;-51
2022/02/03 09:29:34;;;;;;;;;;;3.20;99.90;;;;;;4142344;28;20432;-52
2022/02/03 09:37:29;;;;;;;;;;;3.20;99.90;;;;;;4174393;28;20050;-51
2022/02/03 09:54:10;;;;;;;;;;;5.00;99.90;;;;;;4176465;28;19929;-52
2022/02/03 09:56:22;;;;;;;;;;;5.20;99.90;;;;;;4177550;28;19928;-53
2022/02/03 09:58:27;;;;;;;;;;;5.70;99.90;;;;;;4174503;28;20021;-53
2022/02/03 10:00:35;;;;;;;;;;;5.60;99.90;;;;;;4178788;28;19925;-53
2022/02/03 10:02:42;;;;;;;;;;;5.60;99.90;;;;;;4175900;28;20416;-53
2022/02/03 10:06:58;;;;;;;;;;;5.80;99.90;;;;;;4162386;28;19929;-53
2022/02/03 10:09:00;;;;;;;;;;;6.00;99.90;;;;;;4176435;28;19929;-53
2022/02/03 10:11:15;;;;;;;;;;;6.10;99.90;;;;;;4176489;28;19955;-53
2022/02/03 10:13:20;;;;;;;;;;;6.30;99.90;;;;;;4177736;28;19967;-53
2022/02/03 10:15:23;;;;;;;;;;;6.40;99.90;;;;;;4177884;28;19960;-53
2022/02/03 10:17:32;;;;;;;;;;;6.50;99.90;;;;;;4176369;28;20039;-54
2022/02/03 10:19:37;;;;;;;;;;;6.60;99.90;;;;;;4164963;28;19925;-53
2022/02/03 10:21:41;;;;;;;;;;;6.80;99.90;;;;;;4178263;28;20004;-53
2022/02/03 10:24:17;;;;;;;;;;;7.30;99.90;;;;;;4174908;28;19925;-53
2022/02/03 10:26:19;;;;;;;;;;;7.70;99.90;;;;;;4126146;28;20020;-52
2022/02/03 10:28:23;;;;;;;;;;;7.70;99.90;;;;;;4111163;28;19927;-52
2022/02/03 10:30:32;;;;;;;;;;;7.90;99.90;;;;;;4126896;28;20009;-53
2022/02/03 10:32:41;;;;;;;;;;;8.40;99.90;;;;;;4126120;28;19930;-52
2022/02/03 10:34:43;;;;;;;;;;;8.60;99.90;;;;;;4126771;28;20483;-52
2022/02/03 10:37:42;;;;;;;;;;;8.60;99.90;;;;;;4126216;28;19926;-52
2022/02/03 10:42:06;;;;;;;;;;;8.40;99.90;;;;;;4126172;28;19931;-53
2022/02/03 10:45:00;;;;;;;;;;;8.50;99.90;;;;;;4126886;28;19972;-52
2022/02/03 10:51:39;;;;;;;;;;;9.00;99.90;;;;;;4126317;28;19926;-54
2022/02/03 10:53:52;;;;;;;;;;;9.00;99.90;;;;;;4113376;28;19929;-53
2022/02/03 11:00:57;;;;;;;;;;;9.50;99.90;;;;;;4123720;28;20352;-52
2022/02/03 11:03:11;;;;;;;;;;;10.00;99.90;;;;;;4168619;28;19931;-54
2022/02/03 11:10:00;;;;;;;;;;;10.40;99.90;;;;;;4151453;28;20027;-54
2022/02/03 11:12:23;;;;;;;;;;;11.00;99.90;;;;;;4172012;28;20794;-54
2022/02/03 11:14:25;;;;;;;;;;;11.10;99.90;;;;;;4174089;28;20012;-53
2022/02/03 11:16:28;;;;;;;;;;;11.20;99.90;;;;;;4176037;28;20004;-53
2022/02/03 11:18:31;;;;;;;;;;;11.60;99.90;;;;;;4174198;28;19928;-54
2022/02/03 11:20:38;;;;;;;;;;;12.20;99.90;;;;;;4175289;28;19932;-54
2022/02/03 11:23:33;;;;;;;;;;;12.30;97.80;;;;;;4171887;28;20036;-53
2022/02/03 11:25:17;;;;;;;;;;;12.50;99.90;;;;;;4163637;28;19957;-53
2022/02/03 11:27:36;;;;;;;;;;;12.80;96.70;;;;;;4174070;28;19929;-53
2022/02/03 11:30:14;;;;;;;;;;;12.80;94.40;;;;;;4174325;28;20689;-53
2022/02/03 11:54:43;;;;;;;;;;;14.20;87.50;;;;;;4119625;28;19970;-53
2022/02/03 11:59:46;;;;;;;;;;;14.50;89.10;;;;;;4120983;28;20021;-54
2022/02/03 12:06:56;;;;;;;;;;;14.50;84.00;;;;;;4123027;28;19976;-54
2022/02/03 12:15:49;;;;;;;;;;;14.00;82.40;;;;;;4115343;28;20020;-54
2022/02/03 12:20:28;;;;;;;;;;;14.20;82.00;;;;;;4122809;28;19930;-54
2022/02/03 12:22:42;;;;;;;;;;;14.00;81.60;;;;;;4124022;28;20471;-53
2022/02/03 12:25:11;;;;;;;;;;;14.00;82.30;;;;;;4133918;28;19949;-54
2022/02/03 12:29:45;;;;;;;;;;;14.30;80.60;;;;;;4177787;28;19929;-55
2022/02/03 12:32:03;;;;;;;;;;;14.30;84.40;;;;;;4177963;28;19959;-54
2022/02/03 12:37:45;;;;;;;;;;;13.90;83.00;;;;;;4164815;28;20764;-54
2022/02/03 12:39:11;;;;;;;;;;;13.90;82.70;;;;;;4152208;28;19935;-53
2022/02/03 12:41:19;;;;;;;;;;;14.10;83.50;;;;;;4174135;28;20320;-54
2022/02/03 12:45:27;;;;;;;;;;;14.30;82.40;;;;;;4166637;28;19967;-53
2022/02/03 12:47:31;;;;;;;;;;;14.20;80.70;;;;;;4172658;28;19929;-52
2022/02/03 12:49:37;;;;;;;;;;;14.30;81.70;;;;;;4179364;28;20500;-53
2022/02/03 12:51:39;;;;;;;;;;;14.30;82.80;;;;;;4167365;28;19929;-53
2022/02/03 12:53:41;;;;;;;;;;;14.40;83.30;;;;;;4172922;28;19956;-52
2022/02/03 12:55:42;;;;;;;;;;;14.30;82.70;;;;;;4179454;28;19928;-53
2022/02/03 12:57:47;;;;;;;;;;;14.30;82.40;;;;;;4167830;28;19925;-53
2022/02/03 13:00:03;;;;;;;;;;;14.30;81.80;;;;;;4169094;28;20016;-53
2022/02/03 13:02:11;;;;;;;;;;;14.20;83.40;;;;;;4164182;28;20300;-53
2022/02/03 13:04:16;;;;;;;;;;;14.20;82.70;;;;;;4179159;28;20019;-52
2022/02/03 13:06:21;;;;;;;;;;;14.20;82.90;;;;;;4177764;28;20355;-53
2022/02/03 13:08:32;;;;;;;;;;;14.20;83.00;;;;;;4174222;28;19939;-53
2022/02/03 13:10:37;;;;;;;;;;;14.20;82.90;;;;;;4178635;28;19963;-53
2022/02/03 13:12:48;;;;;;;;;;;14.30;83.70;;;;;;4179326;28;19956;-51
2022/02/03 13:14:55;;;;;;;;;;;14.30;83.50;;;;;;4181540;28;20392;-52
2022/02/03 13:17:24;;;;;;;;;;;14.20;84.30;;;;;;4160739;28;20591;-52
2022/02/03 13:24:26;;;;;;;;;;;14.00;84.10;;;;;;4177276;28;20293;-52
2022/02/03 13:26:33;;;;;;;;;;;14.20;84.60;;;;;;4174218;28;20324;-53
2022/02/03 13:28:45;;;;;;;;;;;14.10;84.50;;;;;;4174355;28;20020;-53
2022/02/03 13:32:54;;;;;;;;;;;14.00;83.90;;;;;;4183321;28;19925;-53
2022/02/03 13:37:15;;;;;;;;;;;14.10;85.50;;;;;;4175788;28;20042;-52
2022/02/03 13:39:27;;;;;;;;;;;13.90;83.80;;;;;;4177912;28;19972;-53
2022/02/03 13:41:30;;;;;;;;;;;13.90;84.60;;;;;;4176218;28;20015;-53
2022/02/03 13:43:37;;;;;;;;;;;13.80;84.90;;;;;;4161603;28;20300;-53
2022/02/03 13:45:40;;;;;;;;;;;13.90;85.20;;;;;;4176087;28;20015;-53
2022/02/03 13:47:42;;;;;;;;;;;14.20;84.50;;;;;;4175688;28;19933;-53
2022/02/03 13:49:44;;;;;;;;;;;14.20;85.80;;;;;;4172005;28;20609;-52
2022/02/03 13:51:57;;;;;;;;;;;14.00;84.40;;;;;;4175063;28;20274;-53
2022/02/03 14:21:57;;;;;;;;;;;13.40;90.30;;;;;;4175949;28;19967;-52
2022/02/03 14:28:42;;;;;;;;;;;13.20;91.10;;;;;;4163678;28;19957;-50
2022/02/03 14:30:47;;;;;;;;;;;13.20;91.20;;;;;;4110679;28;1855898;-52
2022/02/03 14:32:55;;;;;;;;;;;13.20;91.40;;;;;;4176048;28;19936;-52
2022/02/03 14:34:58;;;;;;;;;;;13.20;91.30;;;;;;4177192;28;20015;-52
2022/02/03 14:37:07;;;;;;;;;;;13.20;91.50;;;;;;4175143;28;19925;-53
2022/02/03 14:39:16;;;;;;;;;;;13.20;91.50;;;;;;4176013;28;20801;-51
2022/02/03 14:43:20;;;;;;;;;;;13.00;91.90;;;;;;4175874;28;20652;-52
2022/02/03 14:45:23;;;;;;;;;;;13.00;92.40;;;;;;4175255;28;19929;-52
2022/02/03 14:47:28;;;;;;;;;;;13.00;92.10;;;;;;4177764;28;19935;-53
2022/02/03 14:49:30;;;;;;;;;;;13.00;92.30;;;;;;4168097;28;20020;-51
2022/02/03 14:51:43;;;;;;;;;;;13.10;92.40;;;;;;4167042;28;19936;-52
2022/02/03 14:53:53;;;;;;;;;;;13.10;92.50;;;;;;4176631;28;20274;-53
2022/02/03 15:00:20;;;;;;;;;;;13.20;93.10;;;;;;4162518;28;20034;-52
2022/02/03 15:02:22;;;;;;;;;;;13.10;92.60;;;;;;4176281;28;20003;-52
2022/02/03 15:04:28;;;;;;;;;;;13.10;92.90;;;;;;4172254;28;19991;-51
2022/02/03 15:06:43;;;;;;;;;;;13.10;92.70;;;;;;4164078;28;19983;-52
2022/02/03 15:08:56;;;;;;;;;;;13.10;92.90;;;;;;4177913;28;20007;-51
2022/02/03 15:11:12;;;;;;;;;;;12.90;93.20;;;;;;4175443;28;19932;-52
2022/02/03 15:13:48;;;;;;;;;;;12.80;93.20;;;;;;4176051;28;20011;-51
2022/02/03 15:15:42;;;;;;;;;;;12.70;93.50;;;;;;4161027;28;19929;-52
2022/02/03 15:17:44;;;;;;;;;;;12.60;94.00;;;;;;4174647;28;20173;-50
2022/02/03 15:19:46;;;;;;;;;;;12.50;94.00;;;;;;4174131;28;19925;-52
2022/02/03 15:21:48;;;;;;;;;;;12.40;94.30;;;;;;4177314;28;20011;-52
2022/02/03 15:23:50;;;;;;;;;;;12.40;94.40;;;;;;4159068;28;19971;-50
2022/02/03 15:25:52;;;;;;;;;;;12.30;94.60;;;;;;4175429;28;20326;-51
2022/02/03 15:27:55;;;;;;;;;;;12.30;94.60;;;;;;4177274;28;20388;-52
2022/02/03 15:30:01;;;;;;;;;;;12.20;94.80;;;;;;4151431;28;20420;-51
2022/02/03 15:32:03;;;;;;;;;;;12.10;94.80;;;;;;4169059;28;19925;-52
2022/02/03 15:34:15;;;;;;;;;;;12.10;95.10;;;;;;4161632;28;20293;-52
2022/02/03 15:36:17;;;;;;;;;;;12.00;95.20;;;;;;4177132;28;19925;-50
2022/02/03 15:38:21;;;;;;;;;;;11.90;95.40;;;;;;4175365;28;20023;-51
2022/02/03 15:40:26;;;;;;;;;;;11.90;95.50;;;;;;4176846;28;19925;-52
2022/02/03 15:42:29;;;;;;;;;;;11.80;95.40;;;;;;4176620;28;19928;-51
2022/02/03 15:44:38;;;;;;;;;;;11.70;95.60;;;;;;4173789;28;19929;-51
2022/02/03 15:46:46;;;;;;;;;;;11.70;95.80;;;;;;4174667;28;20020;-51
2022/02/03 16:18:30;;;;;;;;;;;10.90;96.90;;;;;;4173224;28;20003;-50
2022/02/03 16:20:42;;;;;;;;;;;10.80;97.10;;;;;;4163513;28;20015;-51
2022/02/03 16:25:10;;;;;;;;;;;10.70;97.20;;;;;;4171047;28;19968;-50
2022/02/03 16:50:51;;;;;;;;;;;10.20;98.10;;;;;;4173563;28;20525;-51
2022/02/03 16:52:55;;;;;;;;;;;10.20;98.20;;;;;;4174424;28;19936;-52
2022/02/03 16:55:00;;;;;;;;;;;10.20;98.20;;;;;;4175365;28;20323;-50
2022/02/03 16:57:09;;;;;;;;;;;10.10;98.30;;;;;;4175432;28;19924;-51
2022/02/03 16:59:11;;;;;;;;;;;10.10;98.50;;;;;;4174558;28;19929;-50
2022/02/03 17:01:13;;;;;;;;;;;10.00;98.50;;;;;;4173248;28;19991;-51
2022/02/03 17:03:14;;;;;;;;;;;10.10;98.40;;;;;;4174835;28;19971;-50
2022/02/03 17:05:16;;;;;;;;;;;10.10;98.40;;;;;;4167616;28;20363;-51
2022/02/03 17:07:19;;;;;;;;;;;10.10;98.40;;;;;;4160503;28;19968;-51
2022/02/03 17:09:21;;;;;;;;;;;10.00;98.60;;;;;;4178044;28;20408;-51
2022/02/03 17:11:23;;;;;;;;;;;9.90;98.70;;;;;;4177381;28;20032;-51
2022/02/03 17:13:25;;;;;;;;;;;9.90;98.80;;;;;;4179275;28;19968;-49
2022/02/03 17:15:27;;;;;;;;;;;9.80;98.90;;;;;;4177685;28;19971;-51
2022/02/03 17:17:30;;;;;;;;;;;9.80;99.10;;;;;;4176196;28;19924;-51
2022/02/03 17:19:32;;;;;;;;;;;9.80;99.10;;;;;;4179370;28;19936;-51
2022/02/03 17:21:34;;;;;;;;;;;9.70;99.30;;;;;;4177757;28;20020;-51
2022/02/03 17:23:36;;;;;;;;;;;9.70;99.40;;;;;;4176427;28;19936;-51
2022/02/03 17:29:04;;;;;;;;;;;9.60;99.60;;;;;;4176578;28;19929;-49
2022/02/03 17:30:47;;;;;;;;;;;9.70;99.50;;;;;;4169352;28;19972;-51
2022/02/03 18:50:14;;;;;;;;;;;9.70;99.90;;;;;;4178033;28;20472;-51
2022/02/03 18:52:34;;;;;;;;;;;9.60;99.90;;;;;;4174897;28;20504;-50
2022/02/03 18:59:43;;;;;;;;;;;9.50;99.90;;;;;;4174842;28;19975;-53
2022/02/03 20:08:01;;;;;;;;;;;7.80;99.90;;;;;;4176654;28;19931;-52
2022/02/03 20:10:08;;;;;;;;;;;7.80;99.90;;;;;;4175205;28;19979;-52
2022/02/03 20:12:09;;;;;;;;;;;7.90;99.90;;;;;;4170062;28;20003;-52
2022/02/03 20:14:14;;;;;;;;;;;7.90;99.90;;;;;;4172424;28;19928;-52
2022/02/03 20:16:18;;;;;;;;;;;7.80;99.90;;;;;;4174837;28;19975;-53
2022/02/03 20:18:21;;;;;;;;;;;7.50;99.90;;;;;;4176981;28;19932;-52
2022/02/03 20:20:23;;;;;;;;;;;7.40;99.90;;;;;;4178822;28;19925;-53
2022/02/03 20:22:30;;;;;;;;;;;7.70;99.90;;;;;;4174175;28;19925;-53
2022/02/03 20:24:31;;;;;;;;;;;7.80;99.90;;;;;;4172867;28;20003;-52
2022/02/03 20:26:34;;;;;;;;;;;8.00;99.90;;;;;;4176224;28;19968;-53
2022/02/03 20:28:36;;;;;;;;;;;8.00;99.90;;;;;;4168488;28;20020;-51
2022/02/03 20:30:38;;;;;;;;;;;8.00;99.90;;;;;;4173638;28;19928;-52
2022/02/03 20:32:40;;;;;;;;;;;7.70;99.90;;;;;;4176335;28;19940;-52
2022/02/03 20:34:42;;;;;;;;;;;7.80;99.90;;;;;;4174478;28;20003;-52
2022/02/03 20:36:45;;;;;;;;;;;8.10;99.90;;;;;;4178670;28;20443;-53
2022/02/03 20:38:48;;;;;;;;;;;8.30;99.90;;;;;;4166124;28;19932;-53
2022/02/03 20:40:50;;;;;;;;;;;8.20;99.90;;;;;;4173381;28;19972;-52
2022/02/03 20:42:52;;;;;;;;;;;8.10;99.90;;;;;;4175534;28;19924;-52
2022/02/03 20:44:54;;;;;;;;;;;7.90;99.90;;;;;;4178631;28;19960;-52
2022/02/03 20:46:56;;;;;;;;;;;7.80;99.90;;;;;;4173581;28;19964;-53
2022/02/03 20:48:58;;;;;;;;;;;7.70;99.90;;;;;;4170356;28;19963;-52
2022/02/03 20:51:00;;;;;;;;;;;7.70;99.90;;;;;;4179972;28;19935;-50
2022/02/03 20:53:03;;;;;;;;;;;7.60;99.90;;;;;;4176056;28;20456;-52
2022/02/03 20:55:05;;;;;;;;;;;7.60;99.90;;;;;;4178750;28;19966;-52
2022/02/03 20:57:07;;;;;;;;;;;7.70;99.90;;;;;;4167701;28;19929;-52
2022/02/03 20:59:11;;;;;;;;;;;7.70;99.90;;;;;;4178287;28;19925;-52
2022/02/03 21:01:30;;;;;;;;;;;7.60;99.90;;;;;;4175814;28;20480;-51
2022/02/03 21:03:38;;;;;;;;;;;7.60;99.90;;;;;;4179506;28;19967;-52
2022/02/03 21:05:40;;;;;;;;;;;7.30;99.90;;;;;;4174471;28;19964;-53
2022/02/03 21:07:47;;;;;;;;;;;7.10;99.90;;;;;;4168955;28;19928;-51
2022/02/03 21:09:49;;;;;;;;;;;7.10;99.90;;;;;;4178784;28;20007;-51
2022/02/03 21:11:51;;;;;;;;;;;7.00;99.90;;;;;;4160790;28;19979;-51
2022/02/03 21:13:54;;;;;;;;;;;7.00;99.90;;;;;;4178047;28;19932;-50
2022/02/03 21:15:56;;;;;;;;;;;7.00;99.90;;;;;;4178564;28;19924;-52
2022/02/03 21:18:01;;;;;;;;;;;7.10;99.90;;;;;;4175626;28;20016;-52
2022/02/03 21:20:14;;;;;;;;;;;7.20;99.90;;;;;;4179129;28;20431;-52
2022/02/03 21:22:16;;;;;;;;;;;7.10;99.90;;;;;;4165100;28;19929;-51
2022/02/03 21:24:18;;;;;;;;;;;6.80;99.90;;;;;;4173203;28;19979;-51
2022/02/03 21:26:30;;;;;;;;;;;6.80;99.90;;;;;;4180457;28;20636;-52
2022/02/03 21:28:34;;;;;;;;;;;6.80;99.90;;;;;;4167925;28;19952;-53
2022/02/03 21:30:37;;;;;;;;;;;6.90;99.90;;;;;;4171916;28;19976;-52
2022/02/03 21:32:38;;;;;;;;;;;7.20;99.90;;;;;;4173808;28;20311;-51
2022/02/03 21:34:40;;;;;;;;;;;7.20;99.90;;;;;;4166658;28;19925;-53
2022/02/03 21:36:44;;;;;;;;;;;7.40;99.90;;;;;;4171109;28;19960;-52
2022/02/03 21:38:46;;;;;;;;;;;7.60;99.90;;;;;;4178566;28;19925;-52
2022/02/03 21:40:48;;;;;;;;;;;7.90;99.90;;;;;;4178681;28;19968;-52
2022/02/03 21:42:50;;;;;;;;;;;7.90;99.90;;;;;;4176735;28;19929;-52
2022/02/03 21:44:52;;;;;;;;;;;7.80;99.90;;;;;;4178341;28;19983;-51
2022/02/03 21:46:54;;;;;;;;;;;7.80;99.90;;;;;;4176945;28;19929;-52
2022/02/03 21:48:56;;;;;;;;;;;7.70;99.90;;;;;;4173948;28;19929;-52
2022/02/03 21:51:00;;;;;;;;;;;7.70;99.90;;;;;;4164865;28;20448;-51
2022/02/03 21:53:06;;;;;;;;;;;7.80;99.90;;;;;;4176992;28;20019;-52
2022/02/03 21:55:08;;;;;;;;;;;7.90;99.90;;;;;;4177658;28;20377;-53
2022/02/03 21:57:11;;;;;;;;;;;7.90;99.90;;;;;;4177856;28;20027;-53
2022/02/03 21:59:15;;;;;;;;;;;7.70;99.90;;;;;;4176819;28;19925;-52
2022/02/03 22:01:19;;;;;;;;;;;7.60;99.90;;;;;;4175691;28;19933;-52
2022/02/03 22:03:24;;;;;;;;;;;7.60;99.90;;;;;;4177875;28;19932;-52
2022/02/03 22:05:28;;;;;;;;;;;7.60;99.90;;;;;;4177360;28;19965;-53
2022/02/03 22:07:30;;;;;;;;;;;7.70;99.90;;;;;;4174413;28;19924;-52
2022/02/03 22:09:34;;;;;;;;;;;7.70;99.90;;;;;;4169463;28;19925;-52
2022/02/03 22:11:38;;;;;;;;;;;7.50;99.90;;;;;;4176913;28;19925;-52
2022/02/03 22:13:40;;;;;;;;;;;7.10;99.90;;;;;;4179591;28;19925;-52
2022/02/03 22:15:46;;;;;;;;;;;6.60;99.90;;;;;;4178647;28;19964;-51
2022/02/03 22:17:49;;;;;;;;;;;6.30;99.90;;;;;;4174599;28;19924;-52
2022/02/03 22:19:53;;;;;;;;;;;6.40;99.90;;;;;;4176238;28;20027;-51
2022/02/03 22:28:34;;;;;;;;;;;6.90;99.90;;;;;;4172822;28;19929;-51
2022/02/03 22:44:55;;;;;;;;;;;7.20;99.90;;;;;;4174263;28;19971;-52
2022/02/03 22:47:20;;;;;;;;;;;7.20;99.90;;;;;;4175617;28;20392;-52
2022/02/03 22:49:22;;;;;;;;;;;7.30;99.90;;;;;;4177448;28;19976;-52
2022/02/03 22:51:24;;;;;;;;;;;7.30;99.90;;;;;;4176388;28;20022;-52
2022/02/03 22:53:33;;;;;;;;;;;7.40;99.90;;;;;;4181432;28;20388;-52
2022/02/03 22:55:36;;;;;;;;;;;7.30;99.90;;;;;;4178023;28;19933;-52
2022/02/03 22:57:39;;;;;;;;;;;7.10;99.90;;;;;;4173694;28;20012;-51
2022/02/03 23:02:15;;;;;;;;;;;6.90;99.90;;;;;;4146981;28;19960;-53
2022/02/03 23:04:18;;;;;;;;;;;7.10;99.90;;;;;;4142502;28;19957;-52
2022/02/03 23:06:20;;;;;;;;;;;7.10;99.90;;;;;;4141971;28;19967;-52
2022/02/03 23:08:33;;;;;;;;;;;6.70;99.90;;;;;;4141733;28;20646;-52
2022/02/03 23:10:49;;;;;;;;;;;6.20;99.90;;;;;;4141942;28;19961;-51
2022/02/03 23:15:25;;;;;;;;;;;6.70;99.90;;;;;;4126232;28;20017;-52
2022/02/03 23:19:47;;;;;;;;;;;6.90;99.90;;;;;;4140409;28;20404;-52